• Join FlightAware (Why Join?)
  • Login
  • US Flag 
06:55AM EDT


 

Airport Tracker/Info


-or-


 

Live Flight TrackerFlight Track Log ✈ AWE88 ✈ 20-Apr-2012 ✈ KATL - KPHX

Flight Track Log - Related Links

Times and Time Zones

All times are in EDT time to prevent confusion due to time zone crossing. See the AWE88 flight status page for this flight to view local times or setup timezone preferences in your user account.

Time Position Orientation Groundspeed Altitude Reporting Facility
EDT Latitude Longitude Course Direction KTS MPH feet Rate Location/Type
07:54AM 33.6373 -84.3990 356° North  Level FlightAware Approximate
07:55AM 33.6500 -84.4000 73° East 167 192 2,200  Level Atlanta TRACON
07:55AM 33.6667 -84.3333 51° Northeast 210 242 3,000 1,260 Climbing Atlanta TRACON
07:56AM 33.7000 -84.2833 360° North 270 311 4,500 2,160 Climbing Atlanta TRACON
07:57AM 33.7667 -84.2833 312° West 284 327 7,200 2,580 Climbing Atlanta TRACON
07:58AM 33.8167 -84.3500 268° West 286 329 9,700 1,920 Climbing Atlanta TRACON
08:00AM 33.8097 -84.5614 259° West 328 377 13,100 1,740 Climbing Atlanta Center
08:01AM 33.7906 -84.6761 253° West 345 397 15,000 2,040 Climbing Atlanta Center
08:02AM 33.7606 -84.7908 253° West 350 403 17,200 2,100 Climbing Atlanta Center
08:03AM 33.7264 -84.9256 253° West 363 418 19,300 1,860 Climbing Atlanta Center
08:04AM 33.6961 -85.0450 254° West 377 434 21,000 1,560 Climbing Atlanta Center
08:05AM 33.6658 -85.1694 260° West 382 440 22,500 1,440 Climbing Atlanta Center
08:06AM 33.6481 -85.2964 273° West 382 440 23,900 1,320 Climbing Atlanta Center
08:07AM 33.6528 -85.4264 271° West 393 452 25,200 1,200 Climbing Atlanta Center
08:08AM 33.6556 -85.5636 271° West 400 460 26,400 1,020 Climbing Atlanta Center
08:09AM 33.6578 -85.7008 269° West 405 466 27,300 900 Climbing Atlanta Center
08:10AM 33.6558 -85.8358 271° West 404 465 28,200 780 Climbing Atlanta Center
08:11AM 33.6583 -85.9606 271° West 404 465 28,900 780 Climbing Atlanta Center
08:13AM 33.6617 -86.1328 271° West 415 478 30,000 960 Climbing Atlanta Center
08:14AM 33.6633 -86.2775 271° West 422 486 31,000 1,080 Climbing Atlanta Center
08:15AM 33.6647 -86.4175 271° West 427 491 32,200 840 Climbing Atlanta Center
08:16AM 33.6661 -86.5572 271° West 422 486 32,700 360 Climbing Atlanta Center
08:17AM 33.6672 -86.7069 272° West 422 486 33,000 120 Climbing Atlanta Center
08:18AM 33.6703 -86.8494 267° West 422 486 33,000  Level Atlanta Center
08:19AM 33.6650 -86.9914 266° West 422 486 33,000 240 Level Atlanta Center
08:20AM 33.6514 -87.2428 266° West 443 510 33,800 300 Climbing Memphis Center
08:21AM 33.6425 -87.3931 266° West 438 504 34,000 60 Climbing Memphis Center
08:22AM 33.6353 -87.5303 267° West 421 484 34,000  Level Memphis Center
08:23AM 33.6300 -87.6678 266° West 421 484 34,000  Level Memphis Center
08:24AM 33.6225 -87.8053 266° West 421 484 34,000  Level Memphis Center
08:25AM 33.6164 -87.9150 267° West 421 484 34,000  Level Memphis Center
08:26AM 33.6089 -88.0650 265° West 421 484 34,000  Level Memphis Center
08:27AM 33.5986 -88.2000 267° West 421 484 34,000  Level Memphis Center
08:28AM 33.5928 -88.3347 265° West 421 484 34,000  Level Memphis Center
08:29AM 33.5822 -88.4722 267° West 421 484 34,000  Level Memphis Center
08:30AM 33.5758 -88.6094 265° West 416 479 34,000  Level Memphis Center
08:31AM 33.5656 -88.7567 268° West 416 479 34,000  Level Memphis Center
08:32AM 33.5608 -88.8889 266° West 410 472 34,000  Level Memphis Center
08:33AM 33.5519 -89.0261 265° West 410 472 34,000  Level Memphis Center
08:34AM 33.5428 -89.1608 265° West 410 472 34,000  Level Memphis Center
08:35AM 33.5336 -89.2981 265° West 410 472 34,000  Level Memphis Center
08:36AM 33.5244 -89.4353 265° West 410 472 34,000  Level Memphis Center
08:37AM 33.5147 -89.5700 265° West 410 472 34,000  Level Memphis Center
08:38AM 33.5053 -89.7094 265° West 410 472 34,000  Level Memphis Center
08:39AM 33.4953 -89.8492 266° West 415 478 34,000  Level Memphis Center
08:40AM 33.4875 -89.9736 265° West 420 483 34,000  Level Memphis Center
08:41AM 33.4775 -90.1081 265° West 420 483 34,000  Level Memphis Center
08:42AM 33.4672 -90.2428 263° West 420 483 34,000  Level Memphis Center
08:43AM 33.4528 -90.3772 265° West 420 483 34,000  Level Memphis Center
08:44AM 33.4422 -90.5142 264° West 420 483 34,000  Level Memphis Center
08:45AM 33.4294 -90.6483 263° West 414 476 34,000  Level Memphis Center
08:46AM 33.4164 -90.7803 262° West 407 468 34,000  Level Memphis Center
08:47AM 33.4014 -90.9147 263° West 407 468 34,000  Level Memphis Center
08:48AM 33.3881 -91.0439 263° West 407 468 34,000  Level Memphis Center
08:49AM 33.3747 -91.1781 263° West 407 468 34,000  Level Memphis Center
08:50AM 33.3614 -91.3122 263° West 407 468 34,000  Level Memphis Center
08:51AM 33.3478 -91.4464 265° West 407 468 34,000  Level Memphis Center
08:54AM 33.3222 -91.7656 261° West 408 470 34,100  Climbing Fort Worth Center
08:55AM 33.3050 -91.8961 262° West 408 470 34,000 -60 Descending Fort Worth Center
08:56AM 33.2900 -92.0286 264° West 408 470 34,000  Level Fort Worth Center
08:57AM 33.2786 -92.1586 262° West 408 470 34,000  Level Fort Worth Center
08:58AM 33.2633 -92.2886 262° West 408 470 34,000  Level Fort Worth Center
08:59AM 33.2475 -92.4161 262° West 403 464 34,000  Level Fort Worth Center
09:00AM 33.2317 -92.5461 263° West 403 464 34,000 960 Level Fort Worth Center
09:01AM 33.2181 -92.6761 262° West 403 464 36,000 900 Climbing Fort Worth Center
09:02AM 33.2039 -92.8008 262° West 396 456 35,800 -120 Descending Fort Worth Center
09:03AM 33.1894 -92.9233 262° West 385 443 35,800 60 Level Fort Worth Center
09:04AM 33.1750 -93.0456 261° West 385 443 36,000 60 Climbing Fort Worth Center
09:05AM 33.1586 -93.1753 263° West 385 443 36,000  Level Fort Worth Center
09:06AM 33.1442 -93.3100 260° West 399 459 36,000  Level Fort Worth Center
09:07AM 33.1256 -93.4397 262° West 404 465 36,000  Level Fort Worth Center
09:08AM 33.1108 -93.5694 261° West 404 465 36,000  Level Fort Worth Center
09:09AM 33.0939 -93.6992 262° West 404 465 36,000  Level Fort Worth Center
09:10AM 33.0803 -93.8136 261° West 404 465 36,000 -60 Level Fort Worth Center
09:11AM 33.0631 -93.9383 263° West 394 453 35,900  Descending Fort Worth Center
09:12AM 33.0497 -94.0653 261° West 389 448 36,000  Climbing Fort Worth Center
09:13AM 33.0322 -94.1897 262° West 389 448 35,900  Descending Fort Worth Center
09:14AM 33.0167 -94.3167 262° West 389 448 36,000  Climbing Fort Worth Center
09:15AM 33.0008 -94.4483 262° West 394 453 36,000  Level Fort Worth Center
09:16AM 32.9853 -94.5778 260° West 394 453 36,100  Climbing Fort Worth Center
09:17AM 32.9650 -94.7097 263° West 394 453 36,000 -60 Descending Fort Worth Center
09:18AM 32.9511 -94.8364 260° West 399 459 36,000  Level Fort Worth Center
09:19AM 32.9328 -94.9631 260° West 393 452 36,000 -60 Level Fort Worth Center
09:20AM 32.9142 -95.0897 261° West 393 452 35,900  Descending Fort Worth Center
09:21AM 32.8978 -95.2189 264° West 393 452 36,000  Climbing Fort Worth Center
09:22AM 32.8856 -95.3578 266° West 393 452 36,000  Level Fort Worth Center
09:23AM 32.8772 -95.4864 264° West 388 447 36,000  Level Fort Worth Center
09:24AM 32.8664 -95.6128 265° West 388 447 36,000  Level Fort Worth Center
09:25AM 32.8578 -95.7367 264° West 388 447 36,000  Level Fort Worth Center
09:26AM 32.8469 -95.8681 265° West 394 453 36,000  Level Fort Worth Center
09:27AM 32.8378 -95.9844 264° West 394 453 36,000  Level Fort Worth Center
09:28AM 32.8267 -96.1181 264° West 399 459 36,000  Level Fort Worth Center
09:29AM 32.8156 -96.2517 265° West 412 474 36,100  Climbing Fort Worth Center
09:30AM 32.8061 -96.3803 264° West 406 467 36,000 -60 Descending Fort Worth Center
09:31AM 32.7947 -96.5089 265° West 406 467 36,000  Level Fort Worth Center
09:32AM 32.7853 -96.6497 264° West 406 467 36,000  Level Fort Worth Center
09:33AM 32.7733 -96.7758 265° West 395 455 36,000 -60 Level Fort Worth Center
09:34AM 32.7633 -96.9019 264° West 383 441 35,900  Descending Fort Worth Center
09:35AM 32.7514 -97.0281 262° West 390 449 36,000  Climbing Fort Worth Center
09:36AM 32.7369 -97.1542 265° West 390 449 36,000  Level Fort Worth Center
09:37AM 32.7269 -97.2875 265° West 390 449 36,000  Level Fort Worth Center
09:38AM 32.7186 -97.4011 264° West 395 455 36,100  Climbing Fort Worth Center
09:39AM 32.7081 -97.5294 263° West 395 455 36,000 -60 Descending Fort Worth Center
09:40AM 32.6953 -97.6553 265° West 389 448 36,000  Level Fort Worth Center
09:41AM 32.6867 -97.7789 265° West 383 441 36,000  Level Fort Worth Center
09:42AM 32.6758 -97.9169 262° West 390 449 36,000  Level Fort Worth Center
09:43AM 32.6606 -98.0403 264° West 385 443 36,000  Level Fort Worth Center
09:44AM 32.6494 -98.1658 264° West 385 443 36,000  Level Fort Worth Center
09:45AM 32.6383 -98.2917 264° West 385 443 36,000  Level Fort Worth Center
09:46AM 32.6269 -98.4172 263° West 385 443 36,000  Level Fort Worth Center
09:47AM 32.6153 -98.5356 264° West 379 436 36,000  Level Fort Worth Center
09:48AM 32.6036 -98.6614 263° West 379 436 36,000  Level Fort Worth Center
09:49AM 32.5897 -98.7917 264° West 391 450 36,000  Level Fort Worth Center
09:50AM 32.5781 -98.9147 264° West 391 450 36,000  Level Fort Worth Center
09:51AM 32.5658 -99.0453 262° West 391 450 36,000  Level Fort Worth Center
09:52AM 32.5517 -99.1706 264° West 391 450 36,000  Level Fort Worth Center
09:53AM 32.5419 -99.2717 263° West 391 450 36,000  Level Fort Worth Center
09:54AM 32.5272 -99.4142 262° West 391 450 36,000  Level Fort Worth Center
09:55AM 32.5125 -99.5444 263° West 396 456 36,000  Level Fort Worth Center
09:56AM 32.4997 -99.6747 261° West 396 456 36,000  Level Fort Worth Center
09:57AM 32.4828 -99.8072 266° West 408 470 36,000  Level Fort Worth Center
09:58AM 32.4739 -99.9425 266° West 408 470 36,000  Level Fort Worth Center
09:59AM 32.4669 -100.0753 266° West 408 470 36,000  Level Fort Worth Center
10:00AM 32.4597 -100.2078 266° West 408 470 36,000  Level Fort Worth Center
10:01AM 32.4503 -100.3528 266° West 408 470 36,000  Level Fort Worth Center
10:02AM 32.4428 -100.4881 266° West 408 470 36,000  Level Fort Worth Center
10:03AM 32.4353 -100.6256 265° West 408 470 36,000  Level Fort Worth Center
10:04AM 32.4256 -100.7556 266° West 408 470 36,000  Level Fort Worth Center
10:05AM 32.4178 -100.8883 265° West 408 470 36,000  Level Fort Worth Center
10:06AM 32.4078 -101.0231 267° West 408 470 36,000  Level Fort Worth Center
10:07AM 32.4017 -101.1558 264° West 408 470 36,000  Level Fort Worth Center
10:08AM 32.3922 -101.2611 265° West 408 470 36,000  Level Fort Worth Center
10:09AM 32.3808 -101.4231 265° West 408 470 36,000  Level Fort Worth Center
10:10AM 32.3703 -101.5553 265° West 408 470 36,000  Level Fort Worth Center
10:11AM 32.3597 -101.6878 267° West 408 470 36,000  Level Fort Worth Center
10:12AM 32.3531 -101.8225 264° West 408 470 36,000  Level Fort Worth Center
10:13AM 32.3419 -101.9522 266° West 408 470 36,000  Level Fort Worth Center
10:14AM 32.3350 -102.0847 264° West 403 464 36,000  Level Fort Worth Center
10:15AM 32.3239 -102.2144 265° West 403 464 36,000  Level Fort Worth Center
10:16AM 32.3153 -102.3319 264° West 403 464 36,000  Level Fort Worth Center
10:17AM 32.3036 -102.4639 266° West 409 471 36,000  Level Fort Worth Center
10:18AM 32.2964 -102.5964 264° West 409 471 36,000  Level Fort Worth Center
10:19AM 32.2839 -102.7431 265° West 404 465 36,000  Level Fort Worth Center
10:20AM 32.2739 -102.8750 265° West 404 465 36,000  Level Fort Worth Center
10:21AM 32.2639 -103.0069 265° West 404 465 36,000  Level Fort Worth Center
10:23AM 32.2419 -103.2906 265° West 397 457 36,000  Level Albuquerque Center
10:24AM 32.2317 -103.4186 262° West 397 457 36,000  Level Albuquerque Center
10:25AM 32.2169 -103.5444 265° West 397 457 36,000  Level Albuquerque Center
10:26AM 32.2081 -103.6625 263° West 397 457 36,000  Level Albuquerque Center
10:27AM 32.1953 -103.7906 266° West 392 451 36,000  Level Albuquerque Center
10:28AM 32.1867 -103.9208 265° West 400 460 36,000  Level Albuquerque Center
10:29AM 32.1758 -104.0561 264° West 409 471 36,000  Level Albuquerque Center
10:30AM 32.1647 -104.1889 266° West 409 471 36,000  Level Albuquerque Center
10:31AM 32.1578 -104.3217 273° West 408 470 36,000  Level Albuquerque Center
10:32AM 32.1636 -104.4661 272° West 403 464 36,000 -60 Level Albuquerque Center
10:33AM 32.1667 -104.6008 270° West 403 464 35,900 -60 Descending Albuquerque Center
10:34AM 32.1672 -104.7208 274° West 403 464 35,900  Level Albuquerque Center
10:35AM 32.1742 -104.8531 270° West 403 464 36,000  Climbing Albuquerque Center
10:36AM 32.1750 -104.9903 273° West 409 471 36,000 -60 Level Albuquerque Center
10:37AM 32.1817 -105.1225 273° West 409 471 35,900  Descending Albuquerque Center
10:38AM 32.1883 -105.2572 273° West 414 476 36,000  Climbing Albuquerque Center
10:39AM 32.1947 -105.3919 274° West 414 476 36,000 -60 Level Albuquerque Center
10:40AM 32.2031 -105.5292 270° West 419 482 35,900  Descending Albuquerque Center
10:41AM 32.2033 -105.6764 273° West 419 482 36,000  Climbing Albuquerque Center
10:42AM 32.2092 -105.8036 273° West 426 490 36,000  Level Albuquerque Center
10:43AM 32.2153 -105.9581 271° West 426 490 36,000  Level Albuquerque Center
10:44AM 32.2167 -106.0831 272° West 426 490 36,000  Level Albuquerque Center
10:45AM 32.2222 -106.2400 272° West 426 490 36,000  Level Albuquerque Center
10:46AM 32.2256 -106.3725 273° West 439 505 36,000  Level Albuquerque Center
10:47AM 32.2308 -106.5147 271° West 439 505 36,000  Level Albuquerque Center
10:48AM 32.2339 -106.6569 271° West 439 505 36,000 -60 Level Albuquerque Center
10:49AM 32.2367 -106.7967 271° West 439 505 35,900 -60 Descending Albuquerque Center
10:50AM 32.2394 -106.9392 271° West 439 505 35,900  Level Albuquerque Center
10:51AM 32.2419 -107.0911 270° West 439 505 35,900  Level Albuquerque Center
10:52AM 32.2419 -107.2336 272° West 439 505 35,900  Level Albuquerque Center
10:53AM 32.2464 -107.3758 271° West 439 505 36,000  Climbing Albuquerque Center
10:54AM 32.2483 -107.5158 272° West 439 505 35,900 -60 Descending Albuquerque Center
10:55AM 32.2522 -107.6556 270° West 439 505 35,900  Level Albuquerque Center
10:56AM 32.2517 -107.8003 272° West 439 505 36,000  Climbing Albuquerque Center
10:57AM 32.2553 -107.9378 272° West 439 505 36,000  Level Albuquerque Center
10:58AM 32.2589 -108.0803 269° West 439 505 36,000 -60 Level Albuquerque Center
10:59AM 32.2578 -108.2200 271° West 439 505 35,900 -60 Descending Albuquerque Center
11:00AM 32.2608 -108.3625 272° West 439 505 35,900 -420 Level Albuquerque Center
11:01AM 32.2639 -108.4925 269° West 439 505 35,100 -900 Descending Albuquerque Center
11:02AM 32.2625 -108.6347 271° West 439 505 34,100 -1,020 Descending Albuquerque Center
11:03AM 32.2650 -108.7797 270° West 439 505 33,100 -1,020 Descending Albuquerque Center
11:04AM 32.2653 -108.9244 271° West 439 505 32,100 -960 Descending Albuquerque Center
11:05AM 32.2675 -109.0669 271° West 439 505 31,200 -960 Descending Albuquerque Center
11:06AM 32.2694 -109.2142 280° West 439 505 30,200 -600 Descending Albuquerque Center
11:07AM 32.2903 -109.3544 286° West 439 505 30,000 -120 Descending Albuquerque Center
11:08AM 32.3233 -109.4903 286° West 439 505 30,000  Level Albuquerque Center
11:09AM 32.3564 -109.6239 286° West 434 499 30,000  Level Albuquerque Center
11:10AM 32.3892 -109.7597 286° West 434 499 30,000  Level Albuquerque Center
11:11AM 32.4217 -109.8961 286° West 434 499 30,000 -300 Level Albuquerque Center
11:12AM 32.4542 -110.0322 286° West 434 499 29,500 -780 Descending Albuquerque Center
11:13AM 32.4867 -110.1661 285° West 434 499 28,500 -1,140 Descending Albuquerque Center
11:14AM 32.5169 -110.2975 288° West 429 494 27,300 -1,440 Descending Albuquerque Center
11:15AM 32.5550 -110.4367 286° West 418 481 25,700 -1,500 Descending Albuquerque Center
11:16AM 32.5853 -110.5633 299° West 406 467 24,300 -1,200 Descending Albuquerque Center
11:17AM 32.6383 -110.6764 303° West 400 460 23,300 -1,260 Descending Albuquerque Center
11:18AM 32.6919 -110.7744 301° West 394 453 21,800 -1,500 Descending Albuquerque Center
11:19AM 32.7453 -110.8803 303° West 389 448 20,400 -1,380 Descending Albuquerque Center
11:20AM 32.8025 -110.9839 301° West 384 442 19,100 -1,320 Descending Albuquerque Center
11:21AM 32.8556 -111.0900 301° West 384 442 17,800 -1,320 Descending Albuquerque Center
11:22AM 32.9047 -111.1886 298° West 369 425 16,500 -1,320 Descending Albuquerque Center
11:23AM 32.9553 -111.3022 300° West 363 418 15,200 -1,200 Descending Albuquerque Center
11:24AM 33.0022 -111.3983 300° West 353 406 14,100 -1,140 Descending Albuquerque Center
11:25AM 33.0450 -111.4872 302° West 331 381 13,000 -1,140 Descending Albuquerque Center
11:26AM 33.0881 -111.5711 303° West 312 359 11,900 -960 Descending Albuquerque Center
11:27AM 33.1311 -111.6500 294° West 299 344 11,100 -780 Descending Albuquerque Center
11:27AM 33.1500 -111.7000 306° West 292 336 10,700 -720 Descending Phoenix TRACON
11:28AM 33.2000 -111.7833 301° West 283 326 10,000 -600 Descending Phoenix TRACON
11:29AM 33.2333 -111.8500 296° West 285 328 9,500 -540 Descending Phoenix TRACON
11:30AM 33.2667 -111.9333 301° West 256 295 9,000 -720 Descending Phoenix TRACON
11:31AM 33.3000 -112.0000 301° West 240 276 8,100 -1,020 Descending Phoenix TRACON
11:32AM 33.3333 -112.0667 283° West 242 278 7,000 -660 Descending Phoenix TRACON
11:33AM 33.3500 -112.1500 287° West 196 226 6,800 -720 Descending Phoenix TRACON
11:35AM 33.3667 -112.2167 344° North 200 230 5,500 -1,200 Descending Phoenix TRACON
11:36AM 33.4167 -112.2333 344° North 192 221 4,300 -1,200 Descending Phoenix TRACON